Time;durP1;ratioP1;P1;durP2;ratioP2;P2;SDS_P1;SDS_P2;PMS_P1;PMS_P2;Temp;Humidity;BMP_temperature;BMP_pressure;BME280_temperature;BME280_humidity;BME280_pressure;Samples;Min_cycle;Max_cycle;Signal;HPM_P1;HPM_P2
2022/07/14 00:02:20;;;;;;;4.43;1.75;;;21.50;78.10;;;;;;5032342;28;20148;-70
2022/07/14 00:04:52;;;;;;;5.25;1.80;;;21.50;78.50;;;;;;5031440;28;20048;-71
2022/07/14 00:07:24;;;;;;;2.67;1.50;;;21.50;79.00;;;;;;5032300;28;20048;-70
2022/07/14 00:09:55;;;;;;;4.28;1.58;;;21.40;78.10;;;;;;5033916;28;20038;-71
2022/07/14 00:12:27;;;;;;;5.07;1.63;;;21.30;78.50;;;;;;5032528;28;20037;-70
2022/07/14 00:14:59;;;;;;;4.03;1.70;;;21.20;80.10;;;;;;5016636;28;20059;-70
2022/07/14 00:17:30;;;;;;;2.10;1.60;;;21.10;80.30;;;;;;5033798;28;20509;-70
2022/07/14 00:20:04;;;;;;;3.05;1.52;;;21.10;81.00;;;;;;5026556;28;20056;-70
2022/07/14 00:22:35;;;;;;;;;;;21.10;81.30;;;;;;5032907;28;20135;-70
2022/07/14 00:25:08;;;;;;;5.90;1.70;;;21.10;82.20;;;;;;5033031;28;20473;-70
2022/07/14 00:27:39;;;;;;;1.50;1.40;;;21.00;82.40;;;;;;5013913;28;20056;-70
2022/07/14 00:30:11;;;;;;;1.90;1.65;;;21.00;82.80;;;;;;5028025;28;20280;-70
2022/07/14 00:32:43;;;;;;;1.63;1.45;;;21.00;83.30;;;;;;5032620;28;20034;-70
2022/07/14 00:35:15;;;;;;;4.85;1.55;;;21.00;83.60;;;;;;5033024;28;20050;-71
2022/07/14 00:37:47;;;;;;;1.80;1.58;;;21.00;83.60;;;;;;5032103;28;20402;-69
2022/07/14 00:40:19;;;;;;;2.38;1.58;;;20.90;84.10;;;;;;5032187;28;20061;-70
2022/07/14 00:42:51;;;;;;;2.25;1.45;;;20.90;84.90;;;;;;5029760;28;20069;-70
2022/07/14 00:45:26;;;;;;;2.40;1.40;;;20.90;85.10;;;;;;5030881;28;20037;-70
2022/07/14 00:47:58;;;;;;;1.95;1.30;;;20.80;85.30;;;;;;5031926;28;20041;-70
2022/07/14 00:50:30;;;;;;;3.80;1.70;;;20.70;84.30;;;;;;5031655;28;20065;-70
2022/07/14 00:53:07;;;;;;;3.53;1.60;;;20.70;82.40;;;;;;5031987;28;20539;-70
2022/07/14 00:55:41;;;;;;;2.15;1.58;;;20.70;81.70;;;;;;5015729;28;20444;-70
2022/07/14 00:58:13;;;;;;;1.80;1.30;;;20.70;81.20;;;;;;5032004;28;20118;-70
2022/07/14 01:00:45;;;;;;;1.88;1.60;;;20.70;80.40;;;;;;5031192;28;20068;-70
2022/07/14 01:03:17;;;;;;;1.50;1.13;;;20.80;80.60;;;;;;5047527;28;20059;-70
2022/07/14 01:05:49;;;;;;;3.80;1.45;;;20.80;80.80;;;;;;5018198;28;20041;-70
2022/07/14 01:08:20;;;;;;;3.45;1.40;;;20.70;81.80;;;;;;5015540;28;20056;-70
2022/07/14 01:10:52;;;;;;;3.60;1.45;;;20.70;82.40;;;;;;5030539;28;20404;-70
2022/07/14 01:13:24;;;;;;;1.45;1.35;;;20.70;82.70;;;;;;5031052;28;20049;-70
2022/07/14 01:15:56;;;;;;;3.15;1.40;;;20.70;82.00;;;;;;5030557;28;20056;-70
2022/07/14 01:18:27;;;;;;;4.72;1.50;;;20.70;82.30;;;;;;5028171;28;20045;-70
2022/07/14 01:20:59;;;;;;;2.20;1.70;;;20.70;83.50;;;;;;5030853;28;20067;-70
2022/07/14 01:23:32;;;;;;;2.75;1.30;;;20.70;83.50;;;;;;5043693;28;20168;-70
2022/07/14 01:26:04;;;;;;;1.88;1.20;;;20.60;84.10;;;;;;5030188;28;20056;-70
2022/07/14 01:28:36;;;;;;;3.97;1.60;;;20.60;84.50;;;;;;5006751;28;20132;-70
2022/07/14 01:31:08;;;;;;;1.95;1.50;;;20.50;84.90;;;;;;5035148;28;20424;-70
2022/07/14 01:33:40;;;;;;;1.67;1.33;;;20.50;84.90;;;;;;5030014;28;20050;-70
2022/07/14 01:36:11;;;;;;;3.05;1.50;;;20.40;84.60;;;;;;5029921;28;20049;-70
2022/07/14 01:38:43;;;;;;;2.22;1.48;;;20.40;84.00;;;;;;5030201;28;20060;-70
2022/07/14 01:41:15;;;;;;;3.63;1.50;;;20.40;84.10;;;;;;5029316;28;20597;-70
2022/07/14 01:43:47;;;;;;;2.65;1.48;;;20.40;84.50;;;;;;5014494;28;20045;-70
2022/07/14 01:46:18;;;;;;;2.40;1.20;;;20.40;84.80;;;;;;5025917;28;20041;-71
2022/07/14 01:48:51;;;;;;;2.50;1.40;;;20.40;85.70;;;;;;5030353;28;20053;-70
2022/07/14 01:51:25;;;;;;;2.17;1.50;;;20.40;86.70;;;;;;5029241;28;20037;-71
2022/07/14 01:53:57;;;;;;;5.15;1.40;;;20.40;86.20;;;;;;5030078;28;20049;-71
2022/07/14 01:56:31;;;;;;;2.55;1.20;;;20.30;84.90;;;;;;5030148;28;20049;-70
2022/07/14 01:59:02;;;;;;;5.65;1.23;;;20.30;84.50;;;;;;5047012;28;20053;-70
2022/07/14 02:01:41;;;;;;;4.55;1.55;;;20.30;84.60;;;;;;5029039;28;20084;-70
2022/07/14 02:04:20;;;;;;;3.60;1.52;;;20.20;85.10;;;;;;5015480;28;20515;-70
2022/07/14 02:06:49;;;;;;;1.98;1.30;;;20.20;85.60;;;;;;5030272;28;20180;-70
2022/07/14 02:12:42;;;;;;;1.67;1.42;;;20.20;85.60;;;;;;5045098;28;20532;-73
2022/07/14 02:15:14;;;;;;;1.55;1.38;;;20.20;86.00;;;;;;5029723;28;20053;-70
2022/07/14 02:17:48;;;;;;;3.65;1.63;;;20.30;86.30;;;;;;5029096;28;20045;-70
2022/07/14 02:20:20;;;;;;;2.33;1.30;;;20.30;86.10;;;;;;5029756;28;20424;-70
2022/07/14 02:22:52;;;;;;;1.33;1.20;;;20.30;86.10;;;;;;5029735;28;20136;-70
2022/07/14 02:25:24;;;;;;;3.60;1.80;;;20.30;86.00;;;;;;5029407;28;20405;-70
2022/07/14 02:27:56;;;;;;;2.07;1.77;;;20.30;86.30;;;;;;5029815;28;20037;-70
2022/07/14 02:30:28;;;;;;;4.10;1.60;;;20.30;88.20;;;;;;5029761;28;20038;-70
2022/07/14 02:33:00;;;;;;;2.78;1.95;;;20.30;89.80;;;;;;5028840;28;20041;-72
2022/07/14 02:35:32;;;;;;;2.67;1.80;;;20.30;90.30;;;;;;5013545;28;20045;-73
2022/07/14 02:38:05;;;;;;;3.55;1.70;;;20.30;90.40;;;;;;5014087;28;20049;-72
2022/07/14 02:40:36;;;;;;;3.17;1.60;;;20.20;90.80;;;;;;5029624;28;20115;-70
2022/07/14 02:43:08;;;;;;;5.35;1.30;;;20.20;90.10;;;;;;5029419;28;20099;-70
2022/07/14 02:45:41;;;;;;;2.33;1.43;;;20.10;87.40;;;;;;5045161;28;20445;-70
2022/07/14 02:48:12;;;;;;;2.35;1.52;;;20.10;86.20;;;;;;5029713;28;20072;-70
2022/07/14 02:50:45;;;;;;;1.87;1.67;;;20.10;86.40;;;;;;5028648;28;20041;-70
2022/07/14 02:53:17;;;;;;;2.67;1.25;;;20.10;86.80;;;;;;5036647;28;20044;-70
2022/07/14 02:55:49;;;;;;;1.98;1.60;;;20.00;87.40;;;;;;5044820;28;20046;-70
2022/07/14 02:58:21;;;;;;;3.33;1.42;;;20.00;87.80;;;;;;5036514;28;20056;-70
2022/07/14 03:00:54;;;;;;;;;;;20.00;87.30;;;;;;5028985;28;20042;-70
2022/07/14 03:03:27;;;;;;;1.40;1.30;;;20.00;87.00;;;;;;5028051;28;20384;-70
2022/07/14 03:05:58;;;;;;;1.75;1.33;;;20.00;86.60;;;;;;5029031;28;20566;-71
2022/07/14 03:08:30;;;;;;;4.47;1.55;;;20.00;87.10;;;;;;5029339;28;20103;-70
2022/07/14 03:11:02;;;;;;;3.47;1.40;;;20.00;87.70;;;;;;5028255;28;20034;-70
2022/07/14 03:13:35;;;;;;;2.05;1.60;;;19.90;88.50;;;;;;5019941;28;20454;-70
2022/07/14 03:16:09;;;;;;;6.15;2.05;;;19.90;89.50;;;;;;5025623;28;20045;-70
2022/07/14 03:18:43;;;;;;;4.45;1.73;;;19.90;90.20;;;;;;5045900;28;20087;-70
2022/07/14 03:21:15;;;;;;;4.28;1.52;;;19.80;90.80;;;;;;5045329;28;20046;-70
2022/07/14 03:23:51;;;;;;;2.60;1.60;;;19.80;90.80;;;;;;5029659;28;20064;-70
2022/07/14 03:26:28;;;;;;;3.67;1.83;;;19.70;90.10;;;;;;5029264;28;20053;-70
2022/07/14 03:29:00;;;;;;;1.30;1.20;;;19.70;90.30;;;;;;5030177;28;20053;-70
2022/07/14 03:31:33;;;;;;;1.30;1.20;;;19.70;89.40;;;;;;5049060;28;20132;-71
2022/07/14 03:34:09;;;;;;;3.92;1.50;;;19.60;89.10;;;;;;5049091;28;20037;-71
2022/07/14 03:36:43;;;;;;;4.53;1.40;;;19.60;89.70;;;;;;5001334;28;20598;-71
2022/07/14 03:39:18;;;;;;;3.53;1.70;;;19.50;90.30;;;;;;5017969;28;20049;-70
2022/07/14 03:41:50;;;;;;;4.10;1.75;;;19.50;90.60;;;;;;5032093;28;20045;-71
2022/07/14 03:44:22;;;;;;;2.15;1.38;;;19.40;90.80;;;;;;5023954;28;20417;-70
2022/07/14 03:46:54;;;;;;;2.17;1.40;;;19.40;90.80;;;;;;5039055;28;20041;-70
2022/07/14 03:49:26;;;;;;;7.23;2.07;;;19.40;90.70;;;;;;5029408;28;20468;-70
2022/07/14 03:51:59;;;;;;;5.88;1.52;;;19.40;91.10;;;;;;5000119;28;20041;-70
2022/07/14 03:54:32;;;;;;;3.42;1.40;;;19.30;91.20;;;;;;5035050;28;20088;-71
2022/07/14 03:57:04;;;;;;;5.60;1.50;;;19.30;91.40;;;;;;5033171;28;20093;-70
2022/07/14 03:59:40;;;;;;;2.65;1.40;;;19.20;91.40;;;;;;5016353;28;20045;-71
2022/07/14 04:02:15;;;;;;;2.42;1.25;;;19.20;91.10;;;;;;5016459;28;20049;-71
2022/07/14 04:04:47;;;;;;;3.53;1.40;;;19.20;91.10;;;;;;5029473;28;20049;-71
2022/07/14 04:07:19;;;;;;;2.85;1.90;;;19.20;91.20;;;;;;5015936;28;20883;-70
2022/07/14 04:09:51;;;;;;;1.67;1.55;;;19.20;91.60;;;;;;5015943;28;20045;-70
2022/07/14 04:12:24;;;;;;;4.93;1.52;;;19.20;91.90;;;;;;5015753;28;20472;-71
2022/07/14 04:14:56;;;;;;;2.08;1.42;;;19.00;92.20;;;;;;5011959;23;20041;-88
2022/07/14 04:17:23;;;;;;;1.70;1.60;;;18.90;92.30;;;;;;4993012;28;20045;-88
2022/07/14 04:19:50;;;;;;;2.17;1.60;;;19.00;92.30;;;;;;4988700;28;20084;-88
2022/07/14 04:22:21;;;;;;;1.80;1.52;;;19.00;91.70;;;;;;5019004;28;20077;-88
2022/07/14 04:24:48;;;;;;;2.78;1.80;;;19.10;91.30;;;;;;5015230;28;20077;-90
2022/07/14 04:27:16;;;;;;;2.30;2.08;;;19.20;91.80;;;;;;5037830;28;20049;-87
2022/07/14 04:29:43;;;;;;;5.55;2.88;;;19.30;92.10;;;;;;5072765;23;20140;-72
2022/07/14 04:32:15;;;;;;;4.75;2.60;;;19.30;92.60;;;;;;5070332;28;20128;-72
2022/07/14 04:34:47;;;;;;;6.18;3.25;;;19.40;92.70;;;;;;5065437;28;20033;-72
2022/07/14 04:37:19;;;;;;;7.68;2.95;;;19.40;93.40;;;;;;5069563;28;20749;-72
2022/07/14 04:39:51;;;;;;;4.15;3.05;;;19.40;93.90;;;;;;5051910;28;20169;-72
2022/07/14 04:42:24;;;;;;;3.25;2.92;;;19.40;94.00;;;;;;5076118;28;20057;-72
2022/07/14 04:44:56;;;;;;;4.68;2.63;;;19.40;94.50;;;;;;5053026;28;20409;-72
2022/07/14 04:47:28;;;;;;;6.10;2.47;;;19.40;94.80;;;;;;5071444;28;20044;-72
2022/07/14 04:52:52;;;;;;;2.92;2.40;;;19.30;95.10;;;;;;5047266;28;20051;-72
2022/07/14 04:55:51;;;;;;;2.80;2.58;;;19.30;95.30;;;;;;5034924;28;20078;-72
2022/07/14 04:58:33;;;;;;;4.07;2.40;;;19.30;95.60;;;;;;5047031;28;20052;-72
2022/07/14 05:01:05;;;;;;;4.18;2.45;;;19.30;95.80;;;;;;5060836;28;20068;-72
2022/07/14 05:03:41;;;;;;;2.60;2.40;;;19.30;96.00;;;;;;5053329;28;20040;-72
2022/07/14 05:06:15;;;;;;;3.20;2.67;;;19.30;96.30;;;;;;5054043;28;20043;-72
2022/07/14 05:08:47;;;;;;;6.95;2.40;;;19.20;96.70;;;;;;5065279;28;20074;-73
2022/07/14 05:11:19;;;;;;;7.28;2.75;;;19.20;96.90;;;;;;5064450;28;20041;-72
2022/07/14 05:13:53;;;;;;;7.45;2.88;;;19.20;96.90;;;;;;5054111;28;20036;-72
2022/07/14 05:16:24;;;;;;;2.90;1.83;;;19.30;97.40;;;;;;5036509;28;20048;-72
2022/07/14 05:18:58;;;;;;;5.32;1.42;;;19.30;94.50;;;;;;5032779;28;20105;-72
2022/07/14 05:21:30;;;;;;;1.93;1.30;;;19.50;91.30;;;;;;5066329;28;20098;-72
2022/07/14 05:24:02;;;;;;;3.58;1.60;;;19.70;90.80;;;;;;5056301;28;20323;-72
2022/07/14 05:26:34;;;;;;;2.78;1.30;;;19.90;90.40;;;;;;5052997;28;20040;-72
2022/07/14 05:29:06;;;;;;;1.90;1.10;;;20.20;89.40;;;;;;5042671;28;20060;-72
2022/07/14 05:31:39;;;;;;;2.78;2.10;;;20.40;88.20;;;;;;5050218;28;21231;-72
2022/07/14 05:34:12;;;;;;;1.20;1.10;;;20.60;88.40;;;;;;5065608;28;20051;-72
2022/07/14 05:36:43;;;;;;;1.45;1.35;;;20.70;87.20;;;;;;5032109;28;20056;-72
2022/07/14 05:39:15;;;;;;;1.50;1.30;;;20.80;87.20;;;;;;5041964;28;20056;-72
2022/07/14 05:41:47;;;;;;;6.82;2.60;;;20.90;86.90;;;;;;5058329;28;20068;-72
2022/07/14 05:44:19;;;;;;;6.57;2.10;;;20.90;90.10;;;;;;5044308;28;20466;-72
2022/07/14 05:46:46;;;;;;;2.85;1.70;;;20.90;89.00;;;;;;5043275;28;20064;-72
2022/07/14 05:49:18;;;;;;;3.20;1.40;;;21.00;87.60;;;;;;5027406;28;20045;-72
2022/07/14 05:51:50;;;;;;;4.43;1.50;;;21.10;87.90;;;;;;5063069;28;20135;-72
2022/07/14 05:54:22;;;;;;;2.75;1.40;;;21.20;87.40;;;;;;5048208;28;20757;-73
2022/07/14 05:56:54;;;;;;;2.08;1.30;;;21.30;86.90;;;;;;5065066;28;20055;-72
2022/07/14 05:59:26;;;;;;;6.13;2.65;;;21.40;86.60;;;;;;5061455;28;20041;-72
2022/07/14 06:01:58;;;;;;;10.98;3.63;;;21.50;90.40;;;;;;5039186;28;20569;-72
2022/07/14 06:04:30;;;;;;;3.47;2.60;;;21.50;93.20;;;;;;5049894;28;20037;-73
2022/07/14 06:07:02;;;;;;;7.03;2.60;;;21.60;93.60;;;;;;5046287;28;20037;-72
2022/07/14 06:09:37;;;;;;;6.00;3.08;;;21.50;93.50;;;;;;5047892;28;20040;-72
2022/07/14 06:12:11;;;;;;;3.30;2.70;;;21.50;93.30;;;;;;5052856;28;20045;-72
2022/07/14 06:14:44;;;;;;;7.57;3.00;;;21.50;93.50;;;;;;5062821;28;20494;-72
2022/07/14 06:17:17;;;;;;;16.02;12.82;;;21.50;93.70;;;;;;5060857;28;20091;-72
2022/07/14 06:19:49;;;;;;;19.35;17.10;;;21.50;93.70;;;;;;5063910;28;20044;-72
2022/07/14 06:22:20;;;;;;;10.77;8.70;;;21.50;93.90;;;;;;5050160;28;20666;-72
2022/07/14 06:24:52;;;;;;;10.40;5.95;;;21.60;94.30;;;;;;5056991;28;20040;-72
2022/07/14 06:27:25;;;;;;;7.30;4.55;;;21.60;94.50;;;;;;5050404;28;20041;-72
2022/07/14 06:29:57;;;;;;;7.90;3.38;;;21.60;94.50;;;;;;5048486;28;20118;-72
2022/07/14 06:32:31;;;;;;;5.95;3.40;;;21.60;95.10;;;;;;5062441;28;20051;-72
2022/07/14 06:35:04;;;;;;;7.38;3.13;;;21.70;95.30;;;;;;5045893;28;20076;-72
2022/07/14 06:37:36;;;;;;;11.70;3.33;;;21.80;95.50;;;;;;5067307;28;20431;-72
2022/07/14 06:40:08;;;;;;;12.30;2.67;;;21.80;95.20;;;;;;5065654;28;20114;-72
2022/07/14 06:42:44;;;;;;;4.95;2.72;;;21.90;95.00;;;;;;5068197;28;20102;-72
2022/07/14 06:45:34;;;;;;;10.05;3.42;;;21.90;94.60;;;;;;5053414;28;20063;-72
2022/07/14 06:48:07;;;;;;;10.68;3.80;;;21.90;94.80;;;;;;5049671;28;20585;-72
2022/07/14 06:50:38;;;;;;;11.60;3.80;;;22.00;94.90;;;;;;5066671;28;20040;-72
2022/07/14 06:53:10;;;;;;;11.27;4.10;;;22.10;95.20;;;;;;5042453;28;20119;-72
2022/07/14 06:55:42;;;;;;;4.78;2.47;;;22.10;95.10;;;;;;5047229;28;20048;-72
2022/07/14 06:58:15;;;;;;;5.93;2.42;;;22.20;95.20;;;;;;5064831;28;20059;-72
2022/07/14 07:00:46;;;;;;;7.60;2.58;;;22.30;95.00;;;;;;5050776;28;20135;-72
2022/07/14 07:03:18;;;;;;;5.57;2.70;;;22.40;95.10;;;;;;5062370;28;20047;-72
2022/07/14 07:08:40;;;;;;;2.42;1.50;;;22.50;95.20;;;;;;5068273;28;20043;-72
2022/07/14 07:11:12;;;;;;;1.63;1.40;;;22.70;89.30;;;;;;5067347;28;20041;-72
2022/07/14 07:13:44;;;;;;;4.65;1.85;;;23.20;87.20;;;;;;5047827;28;20060;-72
2022/07/14 07:16:16;;;;;;;2.00;1.30;;;23.40;85.90;;;;;;5058164;28;20052;-72
2022/07/14 07:18:48;;;;;;;4.47;1.58;;;23.70;85.00;;;;;;5065190;28;20067;-72
2022/07/14 07:21:20;;;;;;;1.75;1.48;;;23.90;83.70;;;;;;5065609;28;20036;-72
2022/07/14 07:23:54;;;;;;;2.85;1.40;;;24.00;83.90;;;;;;5067923;28;20123;-72
2022/07/14 07:26:25;;;;;;;1.58;1.40;;;24.30;79.60;;;;;;5069271;28;20098;-72
2022/07/14 07:28:57;;;;;;;2.40;1.60;;;24.60;77.70;;;;;;5069249;28;20060;-72
2022/07/14 07:31:29;;;;;;;2.35;1.40;;;24.80;77.50;;;;;;5072440;28;20037;-72
2022/07/14 07:33:56;;;;;;;1.20;1.02;;;25.10;76.00;;;;;;5061717;28;20127;-72
2022/07/14 07:36:28;;;;;;;4.63;1.30;;;25.20;73.90;;;;;;5067109;28;20047;-72
2022/07/14 07:38:59;;;;;;;1.60;1.30;;;25.40;75.20;;;;;;5070574;28;20747;-72
2022/07/14 07:41:31;;;;;;;2.65;1.30;;;25.60;73.10;;;;;;5071499;28;20043;-72
2022/07/14 07:44:03;;;;;;;4.55;1.50;;;25.70;71.00;;;;;;5069251;28;20041;-72
2022/07/14 07:46:35;;;;;;;3.15;1.45;;;25.80;71.70;;;;;;5072005;28;20419;-72
2022/07/14 07:49:06;;;;;;;1.50;1.40;;;25.90;71.20;;;;;;5071446;28;20037;-72
2022/07/14 07:51:38;;;;;;;1.60;1.38;;;26.00;69.40;;;;;;5072414;28;20044;-72
2022/07/14 07:54:10;;;;;;;2.53;1.38;;;26.20;69.90;;;;;;5072128;28;20036;-72
2022/07/14 07:56:42;;;;;;;3.78;1.27;;;26.20;71.50;;;;;;5046107;28;20037;-72
2022/07/14 07:59:15;;;;;;;1.45;1.20;;;26.30;71.80;;;;;;5053703;28;20135;-72
2022/07/14 08:01:46;;;;;;;;;;;26.40;72.10;;;;;;5064340;28;20063;-72
2022/07/14 08:04:18;;;;;;;4.30;1.48;;;26.50;69.80;;;;;;5058820;28;19921;-72
2022/07/14 08:06:50;;;;;;;2.17;1.10;;;26.60;66.30;;;;;;5052060;28;20040;-72
2022/07/14 08:09:22;;;;;;;4.32;1.52;;;26.70;67.40;;;;;;5060965;28;20140;-72
2022/07/14 08:11:54;;;;;;;3.35;1.33;;;26.80;66.40;;;;;;5061297;28;20127;-72
2022/07/14 08:17:17;;;;;;;1.35;1.25;;;27.00;65.70;;;;;;5060656;28;20301;-72
2022/07/14 08:19:49;;;;;;;;;;;27.10;66.90;;;;;;5056567;28;20051;-72
2022/07/14 08:22:23;;;;;;;3.05;1.58;;;27.30;66.40;;;;;;5067496;28;19924;-73
2022/07/14 08:24:56;;;;;;;3.13;1.20;;;27.40;66.70;;;;;;5053649;28;20064;-73
2022/07/14 08:27:27;;;;;;;;;;;27.50;65.10;;;;;;5054115;28;20068;-73
2022/07/14 08:29:59;;;;;;;1.50;1.40;;;27.60;61.40;;;;;;5069656;28;19927;-72
2022/07/14 08:32:42;;;;;;;4.72;1.10;;;27.70;63.90;;;;;;5073132;28;20037;-73
2022/07/14 08:35:17;;;;;;;1.48;1.30;;;27.80;63.20;;;;;;5067137;28;20043;-72
2022/07/14 08:37:49;;;;;;;1.90;1.20;;;27.80;61.20;;;;;;5040040;28;20036;-72
2022/07/14 08:40:24;;;;;;;1.63;1.20;;;27.90;63.60;;;;;;5071256;28;20416;-72
2022/07/14 08:42:53;;;;;;;3.60;1.30;;;28.00;61.60;;;;;;5072634;28;20040;-72
2022/07/14 08:45:26;;;;;;;2.90;1.10;;;28.10;59.80;;;;;;5070275;28;20033;-72
2022/07/14 08:47:58;;;;;;;;;;;28.10;59.60;;;;;;5071511;28;20055;-72
2022/07/14 08:50:30;;;;;;;2.30;1.25;;;28.10;59.70;;;;;;5072080;28;19920;-72
2022/07/14 08:52:56;;;;;;;2.17;1.20;;;28.20;59.10;;;;;;5048645;28;20047;-72
2022/07/14 08:55:28;;;;;;;2.75;1.58;;;28.20;58.60;;;;;;5059937;28;20036;-73
2022/07/14 08:58:00;;;;;;;2.83;1.30;;;28.20;57.60;;;;;;5066335;28;20423;-72
2022/07/14 09:00:32;;;;;;;1.20;1.10;;;28.40;58.00;;;;;;5055042;28;20052;-72
2022/07/14 09:03:05;;;;;;;4.00;1.30;;;28.50;57.50;;;;;;5069910;28;20057;-73
2022/07/14 09:05:41;;;;;;;;;;;28.60;57.90;;;;;;5068448;28;20040;-72
2022/07/14 09:08:14;;;;;;;1.48;1.20;;;28.70;57.50;;;;;;5075443;28;20388;-73
2022/07/14 09:10:47;;;;;;;2.28;1.30;;;28.80;56.20;;;;;;5050486;28;20132;-73
2022/07/14 09:13:21;;;;;;;2.75;1.30;;;28.90;56.90;;;;;;5056913;28;20063;-73
2022/07/14 09:16:16;;;;;;;1.48;1.02;;;29.10;55.80;;;;;;5069015;28;20055;-72
2022/07/14 09:19:01;;;;;;;1.17;1.00;;;29.10;54.50;;;;;;5067032;28;20416;-73
2022/07/14 09:21:37;;;;;;;1.83;1.30;;;29.20;53.40;;;;;;5069226;28;20037;-73
2022/07/14 09:24:09;;;;;;;1.92;1.10;;;29.30;53.90;;;;;;5059652;28;20051;-72
2022/07/14 09:26:52;;;;;;;;;;;29.30;52.40;;;;;;5053511;28;20052;-72
2022/07/14 09:29:29;;;;;;;3.15;1.52;;;29.40;52.40;;;;;;5047507;28;20010;-72
2022/07/14 09:32:00;;;;;;;5.88;1.30;;;29.50;52.20;;;;;;5071171;28;20037;-72
2022/07/14 09:34:33;;;;;;;3.58;1.60;;;29.50;52.50;;;;;;5052726;28;20076;-72
2022/07/14 09:37:13;;;;;;;3.53;1.60;;;29.60;52.20;;;;;;5059233;28;20102;-72
2022/07/14 09:39:54;;;;;;;2.33;1.30;;;29.70;52.80;;;;;;5051297;28;20041;-73
2022/07/14 09:42:50;;;;;;;1.95;0.93;;;29.80;52.60;;;;;;5050028;28;20040;-73
2022/07/14 09:45:24;;;;;;;4.43;1.40;;;29.90;52.10;;;;;;5050882;28;20040;-73
2022/07/14 09:47:59;;;;;;;4.50;1.13;;;29.90;52.40;;;;;;5052537;28;20028;-72
2022/07/14 09:51:00;;;;;;;1.90;1.30;;;29.90;52.70;;;;;;5067056;28;20071;-73
2022/07/14 09:53:34;;;;;;;1.63;1.20;;;30.00;52.40;;;;;;5054066;28;20033;-72
2022/07/14 09:56:07;;;;;;;3.35;1.20;;;30.00;52.10;;;;;;5061511;28;20488;-72
2022/07/14 09:58:40;;;;;;;3.50;1.67;;;30.10;53.10;;;;;;5060782;28;20044;-73
2022/07/14 10:01:19;;;;;;;2.15;1.42;;;30.00;52.90;;;;;;5030699;28;20504;-72
2022/07/14 10:03:54;;;;;;;3.50;1.42;;;30.00;53.20;;;;;;5068475;28;20058;-73
2022/07/14 10:06:22;;;;;;;1.95;1.23;;;30.00;52.10;;;;;;5068871;28;20044;-72
2022/07/14 10:08:57;;;;;;;3.67;1.40;;;30.10;51.80;;;;;;5064462;28;20509;-73
2022/07/14 10:11:25;;;;;;;2.88;1.45;;;30.20;51.90;;;;;;5068616;28;20059;-72
2022/07/14 10:13:58;;;;;;;1.40;1.30;;;30.20;51.90;;;;;;5070264;28;20032;-72
2022/07/14 10:16:34;;;;;;;1.90;1.40;;;30.20;51.20;;;;;;5064123;28;20033;-72
2022/07/14 10:19:06;;;;;;;3.30;1.30;;;30.30;53.00;;;;;;5068208;28;20048;-72
2022/07/14 10:21:39;;;;;;;2.07;1.37;;;30.20;52.30;;;;;;5066422;28;20412;-72
2022/07/14 10:24:12;;;;;;;1.70;1.30;;;30.30;50.60;;;;;;5071966;28;20068;-73
2022/07/14 10:26:45;;;;;;;5.20;1.40;;;30.50;49.70;;;;;;5067426;28;20040;-73
2022/07/14 10:29:17;;;;;;;;;;;30.60;50.70;;;;;;5070325;28;20886;-72
2022/07/14 10:32:07;;;;;;;3.33;1.60;;;30.90;50.20;;;;;;5070445;28;19928;-72
2022/07/14 10:35:10;;;;;;;3.08;1.30;;;30.80;50.80;;;;;;5062579;28;20044;-72
2022/07/14 10:37:50;;;;;;;1.63;1.10;;;30.80;50.00;;;;;;5035980;28;20897;-73
2022/07/14 10:40:45;;;;;;;3.20;1.23;;;30.80;49.40;;;;;;5065245;28;20138;-73
2022/07/14 10:43:20;;;;;;;1.80;1.10;;;31.00;49.20;;;;;;5040954;28;20052;-73
2022/07/14 10:45:54;;;;;;;1.60;1.08;;;31.00;48.00;;;;;;5058867;28;20480;-73
2022/07/14 10:48:31;;;;;;;4.30;1.10;;;30.90;48.40;;;;;;5069170;28;20039;-73
2022/07/14 10:51:26;;;;;;;3.58;1.10;;;30.90;48.50;;;;;;5053008;28;20542;-73
2022/07/14 10:54:04;;;;;;;2.75;1.20;;;30.90;49.40;;;;;;5071331;28;20036;-72
2022/07/14 10:56:37;;;;;;;2.63;1.00;;;31.20;49.50;;;;;;5072850;28;20488;-72
2022/07/14 10:59:28;;;;;;;3.38;1.20;;;31.30;47.00;;;;;;5073521;28;20037;-72
2022/07/14 11:02:12;;;;;;;3.47;1.30;;;31.50;47.20;;;;;;5040250;28;20052;-72
2022/07/14 11:05:12;;;;;;;1.77;1.10;;;31.60;46.60;;;;;;5064345;28;20040;-72
2022/07/14 11:07:46;;;;;;;2.13;0.98;;;31.70;47.30;;;;;;5074398;28;20044;-72
2022/07/14 11:10:20;;;;;;;2.45;1.02;;;31.70;46.90;;;;;;5046426;28;20124;-77
2022/07/14 11:13:04;;;;;;;2.88;1.00;;;31.70;45.30;;;;;;5074190;28;20037;-73
2022/07/14 11:15:52;;;;;;;2.50;1.40;;;31.80;45.40;;;;;;5071033;28;20029;-72
2022/07/14 11:18:18;;;;;;;4.53;1.23;;;31.80;45.20;;;;;;5066758;28;20464;-72
2022/07/14 11:21:17;;;;;;;2.70;1.10;;;31.90;44.40;;;;;;5074185;28;20044;-72
2022/07/14 11:23:48;;;;;;;1.58;1.10;;;31.90;44.20;;;;;;5072028;28;20044;-72
2022/07/14 11:26:41;;;;;;;3.03;1.30;;;31.80;42.30;;;;;;5065739;28;20657;-73
2022/07/14 11:29:14;;;;;;;2.28;1.30;;;31.70;43.20;;;;;;5064450;28;20057;-72
2022/07/14 11:31:50;;;;;;;;;;;31.90;43.30;;;;;;5053287;28;20056;-72
2022/07/14 11:37:20;;;;;;;3.28;1.08;;;31.90;43.00;;;;;;5069371;28;20047;-72
2022/07/14 11:39:51;;;;;;;4.20;1.57;;;32.00;42.60;;;;;;5067458;28;20055;-72
2022/07/14 11:42:23;;;;;;;1.50;1.00;;;32.10;43.00;;;;;;5054376;28;20045;-72
2022/07/14 11:44:55;;;;;;;1.13;1.00;;;32.10;42.90;;;;;;5063717;28;20037;-72
2022/07/14 11:47:24;;;;;;;1.95;1.10;;;32.30;42.50;;;;;;5069243;28;20039;-72
2022/07/14 11:49:59;;;;;;;2.10;1.00;;;32.40;43.00;;;;;;5060128;28;20028;-73
2022/07/14 11:52:34;;;;;;;2.65;1.00;;;32.40;42.20;;;;;;5046737;28;20041;-72
2022/07/14 11:55:08;;;;;;;1.85;1.08;;;32.40;42.50;;;;;;5069929;28;20131;-72
2022/07/14 11:57:50;;;;;;;2.80;1.17;;;32.40;43.10;;;;;;5052220;28;20045;-72
2022/07/14 12:00:21;;;;;;;3.15;1.25;;;32.50;43.10;;;;;;5048716;28;20047;-73
2022/07/14 12:02:55;;;;;;;2.13;1.30;;;32.40;43.20;;;;;;5069391;28;20040;-73
2022/07/14 12:05:24;;;;;;;1.40;1.17;;;32.60;43.40;;;;;;5068966;28;20119;-73
2022/07/14 12:07:55;;;;;;;1.38;1.08;;;32.70;42.90;;;;;;5067640;28;20043;-73
2022/07/14 12:10:39;;;;;;;1.40;1.20;;;32.70;42.20;;;;;;5070504;28;20044;-73
2022/07/14 12:13:11;;;;;;;1.42;1.15;;;32.60;43.10;;;;;;5066739;28;20070;-73
2022/07/14 12:15:43;;;;;;;1.90;1.73;;;32.60;44.20;;;;;;5050723;28;20068;-73
2022/07/14 12:18:15;;;;;;;2.28;1.10;;;32.80;43.50;;;;;;5066111;28;20310;-73
2022/07/14 12:20:47;;;;;;;6.87;2.53;;;32.80;43.50;;;;;;5070575;28;20272;-73
2022/07/14 12:23:19;;;;;;;1.90;1.40;;;32.90;43.50;;;;;;5050762;28;20094;-72
2022/07/14 12:25:51;;;;;;;1.70;1.10;;;32.80;42.20;;;;;;5070049;28;20051;-73
2022/07/14 12:28:27;;;;;;;2.28;1.00;;;32.90;41.80;;;;;;5068651;28;20044;-72
2022/07/14 12:30:59;;;;;;;1.42;0.98;;;32.90;42.00;;;;;;5069031;28;20060;-72
2022/07/14 12:33:37;;;;;;;2.60;1.05;;;32.90;42.30;;;;;;5062262;28;20935;-73
2022/07/14 12:36:14;;;;;;;1.85;1.13;;;32.80;42.30;;;;;;5049252;28;20037;-72
2022/07/14 12:38:47;;;;;;;1.50;0.90;;;32.70;41.60;;;;;;5063140;28;20068;-73
2022/07/14 12:41:22;;;;;;;1.80;0.90;;;32.80;40.30;;;;;;5070012;28;20044;-72
2022/07/14 12:43:56;;;;;;;1.45;1.00;;;32.80;41.10;;;;;;5068834;28;20037;-72
2022/07/14 12:46:30;;;;;;;3.65;1.10;;;32.90;40.70;;;;;;5064817;28;20782;-72
2022/07/14 12:49:07;;;;;;;1.95;1.00;;;32.90;40.70;;;;;;5068970;28;20040;-72
2022/07/14 12:51:42;;;;;;;5.05;1.13;;;33.00;41.10;;;;;;5054008;28;20484;-72
2022/07/14 12:54:17;;;;;;;3.15;1.23;;;33.20;41.10;;;;;;5071006;28;20044;-72
2022/07/14 12:56:53;;;;;;;1.20;1.10;;;33.20;41.20;;;;;;5067317;28;20041;-73
2022/07/14 12:59:36;;;;;;;3.08;1.15;;;33.10;41.90;;;;;;5069628;28;20041;-72
2022/07/14 13:02:10;;;;;;;3.53;1.58;;;33.20;41.90;;;;;;5068404;28;20055;-73
2022/07/14 13:04:47;;;;;;;2.55;1.50;;;33.20;41.70;;;;;;5052030;28;20060;-73
2022/07/14 13:07:27;;;;;;;1.50;1.10;;;33.40;41.20;;;;;;5069496;28;20058;-73
2022/07/14 13:10:16;;;;;;;3.55;1.30;;;33.50;42.00;;;;;;5071567;28;20044;-72
2022/07/14 13:12:55;;;;;;;4.60;1.67;;;33.50;41.40;;;;;;5069619;28;20045;-72
2022/07/14 13:15:29;;;;;;;1.58;1.10;;;33.50;42.30;;;;;;5067273;28;20035;-72
2022/07/14 13:18:08;;;;;;;2.60;1.05;;;33.60;41.50;;;;;;5067099;28;20053;-72
2022/07/14 13:20:47;;;;;;;4.22;1.20;;;33.70;41.30;;;;;;5067816;28;20488;-73
2022/07/14 13:23:32;;;;;;;2.33;1.30;;;33.70;41.30;;;;;;5063046;28;20040;-72
2022/07/14 13:26:05;;;;;;;2.90;1.30;;;33.70;41.20;;;;;;5065635;28;20061;-73
2022/07/14 13:28:39;;;;;;;2.13;1.45;;;33.70;41.60;;;;;;5042617;28;20032;-73
2022/07/14 13:31:19;;;;;;;4.55;1.48;;;33.70;41.50;;;;;;5063615;28;20040;-73
2022/07/14 13:33:58;;;;;;;1.88;1.15;;;33.50;42.80;;;;;;5068000;28;20487;-73
2022/07/14 13:36:30;;;;;;;2.60;1.40;;;33.40;42.20;;;;;;5064584;28;20116;-72
2022/07/14 13:39:02;;;;;;;2.45;1.35;;;33.30;42.50;;;;;;5061004;28;20033;-72